METAR Wetterstationen im Umkreis von Akouda bei Sousse, Tunesien

 

DTMB - Habib Bourguiba, Tunisia
Distanz von der Station: SE 21km
Aktualisiert: Wed, 14-Nov-2018 10:30am CET
Partly Cloudy
Partly Cloudy
 Wind from E
Wind: E 6 km/h
Temperatur: 21°C
Taupunkt: 17°C
Feuchte: 78%
Luftdruck: 1026 hPa
Wolken: Partly Cloudy
Sichtweite: 8 km
Wolkendetails: Partly Cloudy 792 m
2018/11/14 09:30 DTMB 140930Z 10003KT 8000 SCT026 21/17 Q1026 NOSIG
DTNH - Enfidha, Tunisia
Distanz von der Station: NNW 24km
Aktualisiert: Wed, 14-Nov-2018 11:30am CET
Partly Cloudy
Partly Cloudy
 Wind from ESE
Wind: ESE 6 km/h
Temperatur: 20°C
Taupunkt: 17°C
Feuchte: 83%
Luftdruck: 1026 hPa
Wolken: Partly Cloudy
Sichtweite: 10 km
Wolkendetails: Partly Cloudy 610 m
2018/11/14 10:30 DTNH 141030Z 11003KT 080V160 9999 SCT020 20/17 Q1026 NOSIG
 
DTTK - Kairouan, Tunisia
Distanz von der Station: WSW 50km
Aktualisiert: Wed, 14-Nov-2018 11:00am CET
Mostly Cloudy
Mostly Cloudy
 Wind from varies
Wind: varies 2 km/h
Temperatur: 20°C
Taupunkt: 19°C
Feuchte: 94%
Luftdruck: 1026 hPa
Wolken: Mostly Cloudy
Sichtweite: 6 km
Wolkendetails: Mostly Cloudy 610 m
2018/11/14 10:00 DTTK 141000Z VRB01KT 6000 BKN020 20/19 Q1026 REBR
DTTA - Tunis/Carthage, Tunisia
Distanz von der Station: NNW 112km
Aktualisiert: Wed, 14-Nov-2018 11:30am CET
Partly Cloudy
Partly Cloudy
 Wind from ESE
Wind: ESE 11 km/h
Temperatur: 22°C
Taupunkt: 17°C
Feuchte: 73%
Luftdruck: 1026 hPa
Wolken: Partly Cloudy
Sichtweite: 8 km
Wolkendetails: Few Clouds 610 m
Partly Cloudy 701 m
2018/11/14 10:30 DTTA 141030Z 12006KT 080V180 8000 FEW020 SCT023 22/17 Q1026 NOSIG
 
DTTL - Kelibia, Tunisia
Distanz von der Station: NNE 117km
Aktualisiert: Wed, 14-Nov-2018 11:00am CET
Few Clouds
Few Clouds
 Wind from ENE
Wind: ENE 6 km/h
Temperatur: 22°C
Taupunkt: 10°C
Feuchte: 47%
Luftdruck: 1026 hPa
Wolken: Few Clouds
Sichtweite: 10 km
Wolkendetails: Few Clouds 488 m
2018/11/14 10:00 DTTL 141000Z 06003KT 010V120 9999 FEW016 22/10 Q1026
DTTX - Sfax/El-Maou, Tunisia
Distanz von der Station: S 130km
Aktualisiert: Wed, 14-Nov-2018 11:00am CET
Partly Cloudy
Partly Cloudy
 Wind from ENE
Wind: ENE 17 km/h
Temperatur: 22°C
Taupunkt: 14°C
Feuchte: 61%
Luftdruck: 1025 hPa
Wolken: Partly Cloudy
Sichtweite: 8 km
Wolkendetails: Partly Cloudy 610 m
2018/11/14 10:00 DTTX 141000Z 06009KT 8000 SCT020 22/14 Q1025 NOSIG
 
DTTB - Bizerte/Sidi Ahm, Tunisia
Distanz von der Station: NNW 167km
Aktualisiert: Wed, 14-Nov-2018 11:00am CET
Partly Cloudy
Partly Cloudy
 Wind from SSE
Wind: SSE 9 km/h
Temperatur: 20°C
Taupunkt: 18°C
Feuchte: 88%
Luftdruck: 1026 hPa
Wolken: Partly Cloudy
Sichtweite: 7 km
Wolkendetails: Partly Cloudy 488 m
2018/11/14 10:00 DTTB 141000Z 15005KT 120V180 7000 SCT016 20/18 Q1026
DTTN - Jendouba, Tunisia
Distanz von der Station: WNW 171km
Aktualisiert: Wed, 14-Nov-2018 11:00am CET
Few Clouds
Few Clouds
 Wind from varies
Wind: varies 0 km/h
Temperatur: 18°C
Taupunkt: 14°C
Feuchte: 78%
Luftdruck: 1026 hPa
Wolken: Few Clouds
Sichtweite: 10 km
Wolkendetails: Few Clouds 610 m
2018/11/14 10:00 DTTN 141000Z /////KT 9999 FEW020 18/14 Q1026
 
DTKA - Tabarka, Tunisia
Distanz von der Station: NW 194km
Aktualisiert: Wed, 14-Nov-2018 11:00am CET
Few Clouds
Few Clouds
 Wind from NE
Wind: NE 6 km/h
Temperatur: 24°C
Taupunkt: 14°C
Feuchte: 54%
Luftdruck: 1024 hPa
Wolken: Few Clouds
Sichtweite: 10 km
Wolkendetails: Few Clouds 610 m
2018/11/14 10:00 DTKA 141000Z 05003KT 350V110 9999 FEW020 24/14 Q1024 NOSIG
DTTJ - Djerba Mellita, Tunisia
Distanz von der Station: S 225km
Aktualisiert: Wed, 14-Nov-2018 11:30am CET
Clear
Clear
 Wind from E
Wind: E 17 km/h
Temperatur: 23°C
Taupunkt: 12°C
Feuchte: 50%
Luftdruck: 1025 hPa
Wolken: Clear
2018/11/14 10:30 DTTJ 141030Z AUTO 09009KT NCD 23/12 Q1025
 
DTTF - Gafsa, Tunisia
Distanz von der Station: SW 228km
Aktualisiert: Wed, 14-Nov-2018 11:00am CET
Mostly Cloudy
Mostly Cloudy
 Wind from ENE
Wind: ENE 19 km/h
Temperatur: 19°C
Taupunkt: 15°C
Feuchte: 78%
Luftdruck: 1025 hPa
Wolken: Mostly Cloudy
Sichtweite: 8 km
Wolkendetails: Mostly Cloudy 792 m
2018/11/14 10:00 DTTF 141000Z 06010KT 8000 BKN026 19/15 Q1025 NOSIG
DTTG - Gabes, Tunisia
Distanz von der Station: SSW 246km
Aktualisiert: Wed, 14-Nov-2018 11:00am CET
Partly Cloudy
Partly Cloudy
 Wind from E
Wind: E 22 km/h
Temperatur: 21°C
Taupunkt: 16°C
Feuchte: 73%
Luftdruck: 1025 hPa
Wolken: Partly Cloudy
Sichtweite: 7 km
Wolkendetails: Partly Cloudy 610 m
Partly Cloudy 914 m
2018/11/14 10:00 DTTG 141000Z 10012KT 7000 SCT020 SCT030 21/16 Q1025 NOSIG
 
DTTZ - Tozeur/Nefta, Tunisia
Distanz von der Station: SW 315km
Aktualisiert: Wed, 14-Nov-2018 11:00am CET
Partly Cloudy
Partly Cloudy
 Wind from E
Wind: E 33 km/h
Temperatur: 23°C
Taupunkt: 16°C
Feuchte: 65%
Luftdruck: 1024 hPa
Wolken: Partly Cloudy
Sichtweite: 10 km
Wolkendetails: Partly Cloudy 914 m
2018/11/14 10:00 DTTZ 141000Z 08018KT 9999 SCT030 23/16 Q1024 NOSIG
DABS - Tebessa, Algeria
Distanz von der Station: WSW 227km
Aktualisiert: Wed, 14-Nov-2018 11:00am CET
Partly Cloudy
Partly Cloudy
 Wind from E
Wind: E 6 km/h
Temperatur: 17°C
Taupunkt: 10°C
Feuchte: 64%
Luftdruck: 1027 hPa
Wolken: Partly Cloudy
Sichtweite: 10 km
Wolkendetails: Few Clouds 792 m
Partly Cloudy 3048 m
2018/11/14 10:00 DABS 141000Z 10003KT 9999 FEW026 SCT100 17/10 Q1027
 
LICD - Lampedusa Island, Italy
Distanz von der Station: ESE 190km
Aktualisiert: Wed, 14-Nov-2018 10:50am CET
Clear
Clear
 Wind from NNE
Wind: NNE 9 km/h
Temperatur: 21°C
Taupunkt: 16°C
Feuchte: 73%
Luftdruck: 1026 hPa
Bedingungen: Clear
Sichtweite: groesser als 10 km
2018/11/14 09:50 LICD 140950Z 02005KT CAVOK 21/16 Q1026
LICJ - Palermo/Point Ra, Italy
Distanz von der Station: NE 338km
Aktualisiert: Wed, 14-Nov-2018 11:50am CET
Few Clouds
Few Clouds
 Wind from ENE
Wind: ENE 20 km/h
Temperatur: 19°C
Taupunkt: 13°C
Feuchte: 68%
Luftdruck: 1026 hPa
Wolken: Few Clouds
Sichtweite: 10 km
Wolkendetails: Few Clouds 610 m
2018/11/14 10:50 LICJ 141050Z 06011KT 9999 FEW020 19/13 Q1026
 
LICG - Pantelleria(It-A, Italy
Distanz von der Station: NE 163km
Aktualisiert: Wed, 14-Nov-2018 10:55am CET
Clear
Clear
 Wind from NNE
Wind: NNE 17 km/h
Temperatur: 18°C
Taupunkt: 15°C
Feuchte: 83%
Luftdruck: 1026 hPa
Bedingungen: Clear
Sichtweite: groesser als 10 km
2018/11/14 09:55 LICG 140955Z 02009KT CAVOK 18/15 Q1026
LMML - Luqa/Malta, Malta
Distanz von der Station: E 351km
Aktualisiert: Wed, 14-Nov-2018 11:45am CET
Few Clouds
Few Clouds
 Wind from varies
Wind: varies 2 km/h
Temperatur: 20°C
Taupunkt: 14°C
Feuchte: 69%
Luftdruck: 1025 hPa
Wolken: Few Clouds
Sichtweite: 10 km
Wolkendetails: Few Clouds 853 m
2018/11/14 10:45 LMML 141045Z VRB01KT 9999 FEW028 20/14 Q1025 NOSIG

Metar display script from Saratoga-Weather.org